Elias, Kentucky
Current Conditions -  °F | °C
As of 8:53 AM on Sunday 23 Nov 2014 (Local Time) from KLOZ Reporting Station
Overcast Overcast  
Wind Chill: 52°   Ceiling: 6500
Heat Index: 52°   Visibility: 10mi
Dew Point: 36°   Wind: 5mph
Humidity: 54%   Direction: 90°E
Pressure: 29.98"   Gusts: NA
Location:  37.346°N, 83.8503°W
Report Text: KLOZ 231353Z AUTO 09004KT 10SM BKN065 OVC100 11/02 A2998 RMK AO2 SLP152 T01110022
Loading
Personal Weather Stations






























Interactive Weather Map New forecast layout! Learn more

10-Day Weather Forecast

Advertisements
Track Severe Weather on mobile